CheckWX is a tool to help pilots better visualize weather data.  It is not intended as a substitute for an official pre-flight weather briefing.

13:46:00 UTC

LRAR METAR
Arad International Airport
Arad, Romania
Current

16 mins ago

LRAR 151330Z 29006KT CAVOK 26/07 Q1024
Observed
Sep-15 @ 13:30 UTC
Wind
  • 290° at 6 KTS
Visibility
10,000+ meters
Flight Rules
VFR
Cloud Levels
  • Clear skies
Temperature
26°C / 79°F
Dewpoint
C / 45°F
Humidity
30%
Altimeter
30.24" Hg
Pressure
1023.92 hPa
Previous

46 mins ago

LRAR 151300Z 27007KT 240V300 CAVOK 26/07 Q1024
Observed
Sep-15 @ 13:00 UTC
Wind
  • 270° at 7 KTS
Visibility
10,000+ meters
Flight Rules
VFR
Cloud Levels
  • Clear skies
Temperature
26°C / 79°F
Dewpoint
C / 45°F
Humidity
30%
Altimeter
30.24" Hg
Pressure
1023.92 hPa
Previous

1 hour ago

LRAR 151230Z 24007KT 210V300 CAVOK 26/08 Q1024
Observed
Sep-15 @ 12:30 UTC
Wind
  • 240° at 7 KTS
Visibility
10,000+ meters
Flight Rules
VFR
Cloud Levels
  • Clear skies
Temperature
26°C / 79°F
Dewpoint
C / 46°F
Humidity
32%
Altimeter
30.24" Hg
Pressure
1023.92 hPa